Time;durP1;ratioP1;P1;durP2;ratioP2;P2;SDS_P1;SDS_P2;PMS_P1;PMS_P2;Temp;Humidity;BMP_temperature;BMP_pressure;BME280_temperature;BME280_humidity;BME280_pressure;Samples;Min_cycle;Max_cycle;Signal;HPM_P1;HPM_P2
2024/01/17 00:02:04;;;;;;;24.08;12.27;;;7.10;59.80;;;;;;4976465;28;20031;-68
2024/01/17 00:04:30;;;;;;;24.83;11.90;;;7.10;60.10;;;;;;4976451;28;20038;-68
2024/01/17 00:06:57;;;;;;;25.48;12.43;;;7.00;60.10;;;;;;4975987;28;20066;-68
2024/01/17 00:09:23;;;;;;;25.23;12.25;;;7.10;60.30;;;;;;4975734;28;20110;-68
2024/01/17 00:11:52;;;;;;;24.95;12.25;;;7.10;60.20;;;;;;4976887;28;20027;-68
2024/01/17 00:14:18;;;;;;;23.35;12.35;;;7.00;60.10;;;;;;4976334;28;20023;-68
2024/01/17 00:16:44;;;;;;;28.70;15.15;;;7.00;60.60;;;;;;4976359;28;20042;-68
2024/01/17 00:19:10;;;;;;;26.27;15.05;;;7.00;60.90;;;;;;4976337;28;20392;-68
2024/01/17 00:21:37;;;;;;;27.60;13.48;;;7.00;61.80;;;;;;4976305;28;20146;-68
2024/01/17 00:24:03;;;;;;;25.20;12.25;;;7.00;61.90;;;;;;4976255;28;20033;-68
2024/01/17 00:26:29;;;;;;;24.10;11.95;;;7.00;61.60;;;;;;4976214;28;20491;-68
2024/01/17 00:28:55;;;;;;;24.33;12.80;;;6.90;61.40;;;;;;4976690;28;20031;-68
2024/01/17 00:31:22;;;;;;;24.65;13.05;;;6.90;61.40;;;;;;4976531;28;20023;-68
2024/01/17 00:33:48;;;;;;;25.83;12.70;;;6.90;61.40;;;;;;4976151;28;20023;-68
2024/01/17 00:36:14;;;;;;;25.65;13.48;;;6.90;61.50;;;;;;4976683;28;20037;-68
2024/01/17 00:38:40;;;;;;;26.77;14.23;;;6.90;61.60;;;;;;4975531;28;20030;-68
2024/01/17 00:41:06;;;;;;;25.75;13.27;;;6.90;61.40;;;;;;4977981;28;20030;-67
2024/01/17 00:43:32;;;;;;;24.60;12.88;;;6.90;61.50;;;;;;4980175;28;20051;-67
2024/01/17 00:45:59;;;;;;;24.75;13.95;;;6.90;61.50;;;;;;4980632;28;20093;-68
2024/01/17 00:48:24;;;;;;;26.83;13.20;;;6.90;61.60;;;;;;4980912;28;20019;-68
2024/01/17 00:50:50;;;;;;;25.88;13.82;;;6.90;61.50;;;;;;4980789;28;20027;-67
2024/01/17 00:53:16;;;;;;;25.67;14.10;;;6.90;61.60;;;;;;4980896;28;20019;-67
2024/01/17 00:55:42;;;;;;;23.20;14.45;;;6.90;61.70;;;;;;4980767;28;20107;-69
2024/01/17 00:58:08;;;;;;;25.00;13.45;;;6.90;61.90;;;;;;4980514;28;20023;-68
2024/01/17 01:00:34;;;;;;;26.90;14.00;;;6.90;61.90;;;;;;4980359;28;20107;-69
2024/01/17 01:03:00;;;;;;;26.58;14.20;;;6.90;62.10;;;;;;4979813;28;20023;-68
2024/01/17 01:05:26;;;;;;;25.17;13.77;;;6.90;62.30;;;;;;4979416;28;20114;-68
2024/01/17 01:07:52;;;;;;;27.17;13.43;;;6.90;62.40;;;;;;4979934;28;20097;-68
2024/01/17 01:10:18;;;;;;;28.00;14.30;;;6.90;62.40;;;;;;4979507;28;20075;-68
2024/01/17 01:12:44;;;;;;;26.98;13.38;;;6.90;62.40;;;;;;4979561;28;20055;-68
2024/01/17 01:15:10;;;;;;;27.38;13.68;;;6.90;62.40;;;;;;4979453;28;20548;-68
2024/01/17 01:17:36;;;;;;;25.27;13.60;;;6.90;62.60;;;;;;4979255;28;20030;-68
2024/01/17 01:20:02;;;;;;;23.13;13.18;;;6.90;62.60;;;;;;4979184;28;20058;-68
2024/01/17 01:22:28;;;;;;;24.88;14.00;;;6.90;62.70;;;;;;4979386;28;20102;-68
2024/01/17 01:24:54;;;;;;;24.88;13.65;;;6.90;62.70;;;;;;4979037;28;20170;-68
2024/01/17 01:27:19;;;;;;;24.85;13.73;;;6.90;62.80;;;;;;4979029;28;20023;-68
2024/01/17 01:29:46;;;;;;;25.38;13.93;;;6.90;62.70;;;;;;4978971;28;20058;-68
2024/01/17 01:32:12;;;;;;;23.92;12.63;;;6.90;62.90;;;;;;4978994;28;20034;-68
2024/01/17 01:34:38;;;;;;;23.42;13.25;;;6.90;63.00;;;;;;4978905;28;20019;-68
2024/01/17 01:37:04;;;;;;;24.50;12.82;;;6.90;63.20;;;;;;4978728;28;20023;-68
2024/01/17 01:39:30;;;;;;;26.73;13.63;;;6.90;62.80;;;;;;4979060;28;20027;-68
2024/01/17 01:41:56;;;;;;;23.63;12.20;;;6.80;62.90;;;;;;4978696;28;20041;-68
2024/01/17 01:44:22;;;;;;;21.73;12.50;;;6.90;62.80;;;;;;4978708;28;20098;-68
2024/01/17 01:46:49;;;;;;;22.70;12.30;;;6.90;62.70;;;;;;4978390;28;20061;-68
2024/01/17 01:49:16;;;;;;;28.65;13.52;;;6.90;62.60;;;;;;4977594;28;20476;-68
2024/01/17 01:51:44;;;;;;;26.88;13.70;;;6.90;62.50;;;;;;4977793;28;20027;-68
2024/01/17 01:54:14;;;;;;;24.00;13.23;;;6.90;62.60;;;;;;4978672;28;20022;-68
2024/01/17 01:56:41;;;;;;;23.20;13.90;;;6.90;62.50;;;;;;4978419;28;20015;-68
2024/01/17 01:59:08;;;;;;;26.20;13.15;;;6.90;62.60;;;;;;4977789;28;20049;-68
2024/01/17 02:01:35;;;;;;;23.42;13.38;;;6.90;62.30;;;;;;4978714;28;20051;-68
2024/01/17 02:04:02;;;;;;;23.80;13.07;;;6.90;62.20;;;;;;4978893;28;20069;-68
2024/01/17 02:06:30;;;;;;;22.77;12.98;;;6.90;62.30;;;;;;4978273;28;20042;-68
2024/01/17 02:08:57;;;;;;;25.85;13.30;;;6.90;62.30;;;;;;4978123;28;20460;-68
2024/01/17 02:11:24;;;;;;;24.13;12.60;;;6.90;62.50;;;;;;4978257;28;20026;-68
2024/01/17 02:13:50;;;;;;;21.65;11.40;;;6.90;62.50;;;;;;4978420;28;20065;-68
2024/01/17 02:16:18;;;;;;;24.40;13.07;;;6.90;62.50;;;;;;4978016;28;20031;-68
2024/01/17 02:18:44;;;;;;;23.80;12.20;;;6.90;62.90;;;;;;4978028;28;20397;-68
2024/01/17 02:21:11;;;;;;;25.30;12.80;;;6.90;63.00;;;;;;4978337;28;20034;-68
2024/01/17 02:23:37;;;;;;;27.00;12.77;;;6.90;63.00;;;;;;4977949;28;20023;-68
2024/01/17 02:26:03;;;;;;;21.15;11.93;;;6.90;63.20;;;;;;4978426;28;20092;-68
2024/01/17 02:28:30;;;;;;;27.05;12.60;;;6.90;63.00;;;;;;4978470;28;20505;-68
2024/01/17 02:30:58;;;;;;;24.58;12.70;;;6.90;63.00;;;;;;4977781;28;20039;-68
2024/01/17 02:33:24;;;;;;;23.95;12.02;;;6.90;62.90;;;;;;4977856;28;20026;-68
2024/01/17 02:35:50;;;;;;;23.95;12.85;;;6.90;62.90;;;;;;4977996;28;20470;-68
2024/01/17 02:38:15;;;;;;;18.55;10.43;;;6.90;63.00;;;;;;4977755;28;20369;-68
2024/01/17 02:40:42;;;;;;;17.58;10.13;;;6.90;63.00;;;;;;4977708;28;20054;-68
2024/01/17 02:43:08;;;;;;;19.02;10.20;;;6.90;62.60;;;;;;4978159;28;20497;-68
2024/01/17 02:45:34;;;;;;;21.08;9.85;;;6.80;62.40;;;;;;4977342;28;20039;-68
2024/01/17 02:48:00;;;;;;;27.60;12.70;;;6.90;61.90;;;;;;4977543;28;20035;-68
2024/01/17 02:50:27;;;;;;;21.40;12.00;;;6.90;62.50;;;;;;4977443;28;20086;-68
2024/01/17 02:52:52;;;;;;;24.27;12.95;;;6.90;62.90;;;;;;4978039;28;20050;-68
2024/01/17 02:55:19;;;;;;;22.55;12.85;;;6.90;63.00;;;;;;4977334;28;20457;-68
2024/01/17 02:57:45;;;;;;;22.40;12.68;;;6.90;63.40;;;;;;4977623;28;20030;-68
2024/01/17 03:00:12;;;;;;;23.08;11.20;;;6.90;63.50;;;;;;4977856;28;20034;-67
2024/01/17 03:02:38;;;;;;;21.88;11.90;;;6.90;63.10;;;;;;4977271;28;20054;-68
2024/01/17 03:05:08;;;;;;;20.13;10.85;;;6.90;63.10;;;;;;4976987;28;20116;-68
2024/01/17 03:07:34;;;;;;;21.13;11.68;;;6.90;63.40;;;;;;4976249;28;20118;-68
2024/01/17 03:10:00;;;;;;;23.35;11.77;;;6.90;63.20;;;;;;4977595;28;20041;-68
2024/01/17 03:12:27;;;;;;;21.70;11.80;;;6.90;63.70;;;;;;4977180;28;20031;-68
2024/01/17 03:14:53;;;;;;;35.45;16.88;;;6.90;63.70;;;;;;4977010;28;20015;-68
2024/01/17 03:17:19;;;;;;;28.38;14.40;;;6.90;63.70;;;;;;4976065;28;20425;-68
2024/01/17 03:19:48;;;;;;;24.38;12.63;;;6.90;63.80;;;;;;4977039;28;20102;-68
2024/01/17 03:22:17;;;;;;;23.95;12.90;;;6.90;63.90;;;;;;4977506;28;20469;-68
2024/01/17 03:24:46;;;;;;;25.80;13.15;;;6.80;63.70;;;;;;4977161;28;20117;-68
2024/01/17 03:27:13;;;;;;;23.52;12.10;;;6.90;63.80;;;;;;4977435;28;20035;-68
2024/01/17 03:29:39;;;;;;;23.77;12.65;;;6.90;63.80;;;;;;4976736;28;20034;-68
2024/01/17 03:32:05;;;;;;;23.17;12.88;;;6.90;63.90;;;;;;4976766;28;20464;-68
2024/01/17 03:34:31;;;;;;;30.08;15.02;;;6.90;63.70;;;;;;4977013;28;20026;-68
2024/01/17 03:36:57;;;;;;;23.20;13.07;;;6.90;63.60;;;;;;4976892;28;20421;-68
2024/01/17 03:39:23;;;;;;;24.02;12.43;;;6.80;63.50;;;;;;4976736;28;20106;-68
2024/01/17 03:41:49;;;;;;;27.63;13.30;;;6.90;63.50;;;;;;4976686;28;20058;-68
2024/01/17 03:44:15;;;;;;;24.02;13.43;;;6.90;63.40;;;;;;4976715;28;20054;-68
2024/01/17 03:46:41;;;;;;;22.13;12.07;;;6.80;63.60;;;;;;4976353;28;20126;-68
2024/01/17 03:49:06;;;;;;;26.13;12.75;;;6.80;63.50;;;;;;4976549;28;20031;-68
2024/01/17 03:51:32;;;;;;;24.75;11.93;;;6.80;63.60;;;;;;4976832;28;20033;-68
2024/01/17 03:53:59;;;;;;;24.55;12.43;;;6.80;63.70;;;;;;4976572;28;20019;-68
2024/01/17 03:56:25;;;;;;;22.90;12.48;;;6.80;63.70;;;;;;4976394;28;20038;-68
2024/01/17 03:58:51;;;;;;;21.27;11.50;;;6.90;63.80;;;;;;4976749;28;20023;-68
2024/01/17 04:01:17;;;;;;;21.02;11.25;;;6.80;63.80;;;;;;4976402;28;20364;-68
2024/01/17 04:03:44;;;;;;;24.42;12.30;;;6.80;63.60;;;;;;4976380;28;20023;-68
2024/01/17 04:06:09;;;;;;;21.60;12.05;;;6.80;63.80;;;;;;4976488;28;20027;-68
2024/01/17 04:08:35;;;;;;;17.95;10.30;;;6.80;63.90;;;;;;4976437;28;20023;-68
2024/01/17 04:11:01;;;;;;;26.15;12.55;;;6.80;63.80;;;;;;4976344;28;20030;-68
2024/01/17 04:13:27;;;;;;;22.13;11.77;;;6.80;63.70;;;;;;4976661;28;20019;-68
2024/01/17 04:15:53;;;;;;;24.25;12.95;;;6.80;63.70;;;;;;4978002;28;20077;-68
2024/01/17 04:18:19;;;;;;;26.15;13.38;;;6.80;63.90;;;;;;4980845;28;20022;-68
2024/01/17 04:20:45;;;;;;;23.15;12.93;;;6.70;63.80;;;;;;4980813;28;20041;-68
2024/01/17 04:23:11;;;;;;;21.35;12.65;;;6.70;63.80;;;;;;4980468;28;20073;-68
2024/01/17 04:25:37;;;;;;;25.42;13.52;;;6.80;64.00;;;;;;4980118;28;20038;-68
2024/01/17 04:28:06;;;;;;;29.70;14.40;;;6.80;64.00;;;;;;4980185;28;20203;-68
2024/01/17 04:30:33;;;;;;;26.08;13.68;;;6.70;64.00;;;;;;4980003;28;20023;-68
2024/01/17 04:33:00;;;;;;;24.48;13.40;;;6.80;64.10;;;;;;4980309;28;20026;-68
2024/01/17 04:35:26;;;;;;;27.63;13.73;;;6.70;64.10;;;;;;4979839;28;20404;-68
2024/01/17 04:37:53;;;;;;;26.00;13.77;;;6.70;64.20;;;;;;4979043;28;20413;-68
2024/01/17 04:40:18;;;;;;;28.85;13.95;;;6.70;64.30;;;;;;4979826;28;20030;-68
2024/01/17 04:42:48;;;;;;;25.95;14.05;;;6.70;64.10;;;;;;4980149;28;20018;-68
2024/01/17 04:45:17;;;;;;;26.33;14.13;;;6.80;64.00;;;;;;4979730;28;20035;-69
2024/01/17 04:47:44;;;;;;;22.75;12.55;;;6.80;63.90;;;;;;4980093;28;20081;-68
2024/01/17 04:50:12;;;;;;;27.67;14.15;;;6.80;64.10;;;;;;4980188;28;20037;-68
2024/01/17 04:52:39;;;;;;;26.23;13.15;;;6.70;64.30;;;;;;4979605;28;20085;-68
2024/01/17 04:55:07;;;;;;;22.83;13.18;;;6.70;64.20;;;;;;4979536;28;20057;-68
2024/01/17 04:57:35;;;;;;;26.70;13.48;;;6.70;63.90;;;;;;4979598;28;20110;-68
2024/01/17 05:00:05;;;;;;;29.48;14.65;;;6.70;64.30;;;;;;4979809;28;20035;-68
2024/01/17 05:02:31;;;;;;;29.70;13.90;;;6.70;64.00;;;;;;4979760;28;20053;-68
2024/01/17 05:04:57;;;;;;;34.20;14.02;;;6.70;63.90;;;;;;4978514;28;20437;-68
2024/01/17 05:07:23;;;;;;;29.75;13.38;;;6.70;64.00;;;;;;4978453;28;20026;-68
2024/01/17 05:09:49;;;;;;;21.08;12.13;;;6.70;64.30;;;;;;4978337;28;20026;-68
2024/01/17 05:12:15;;;;;;;26.05;13.38;;;6.70;64.60;;;;;;4979592;28;20097;-68
2024/01/17 05:14:42;;;;;;;26.52;13.48;;;6.70;64.40;;;;;;4979291;28;20027;-68
2024/01/17 05:17:08;;;;;;;22.13;11.82;;;6.70;64.10;;;;;;4979396;28;20030;-67
2024/01/17 05:19:35;;;;;;;22.45;11.13;;;6.70;64.00;;;;;;4979229;28;20065;-68
2024/01/17 05:22:01;;;;;;;20.60;10.55;;;6.70;63.80;;;;;;4979098;28;20031;-68
2024/01/17 05:24:27;;;;;;;16.95;10.07;;;6.70;63.40;;;;;;4979631;28;20038;-67
2024/01/17 05:26:53;;;;;;;23.98;10.82;;;6.80;63.40;;;;;;4979261;28;20118;-68
2024/01/17 05:29:19;;;;;;;18.88;10.00;;;6.80;63.00;;;;;;4979015;28;20030;-68
2024/01/17 05:31:45;;;;;;;19.92;11.07;;;6.80;62.90;;;;;;4979517;28;20127;-68
2024/01/17 05:34:10;;;;;;;22.45;10.65;;;6.80;62.90;;;;;;4979209;28;20077;-68
2024/01/17 05:36:37;;;;;;;22.63;12.02;;;6.80;62.80;;;;;;4978903;28;20082;-68
2024/01/17 05:39:04;;;;;;;23.45;12.38;;;6.80;63.40;;;;;;4978821;28;20106;-68
2024/01/17 05:41:30;;;;;;;28.17;12.77;;;6.80;63.60;;;;;;4977907;28;20080;-68
2024/01/17 05:43:57;;;;;;;22.52;11.43;;;6.90;63.40;;;;;;4978736;28;20031;-68
2024/01/17 05:46:22;;;;;;;22.00;11.80;;;6.80;63.30;;;;;;4978513;28;20488;-68
2024/01/17 05:48:48;;;;;;;20.48;10.38;;;6.90;63.10;;;;;;4978796;28;20030;-68
2024/01/17 05:51:14;;;;;;;22.65;11.65;;;6.80;63.20;;;;;;4978900;28;20449;-67
2024/01/17 05:53:41;;;;;;;26.38;11.80;;;6.90;63.40;;;;;;4979143;28;20037;-68
2024/01/17 05:56:06;;;;;;;20.98;11.32;;;6.80;63.70;;;;;;4978737;28;20018;-68
2024/01/17 05:58:33;;;;;;;21.85;11.23;;;6.90;63.60;;;;;;4977633;28;20082;-68
2024/01/17 06:00:59;;;;;;;22.80;11.82;;;6.80;63.40;;;;;;4978688;28;20030;-68
2024/01/17 06:03:25;;;;;;;25.42;11.25;;;6.80;63.50;;;;;;4978449;28;20357;-68
2024/01/17 06:05:52;;;;;;;20.48;11.02;;;6.80;63.80;;;;;;4978373;28;20363;-68
2024/01/17 06:08:18;;;;;;;22.63;11.52;;;6.80;63.70;;;;;;4978573;28;20035;-68
2024/01/17 06:10:45;;;;;;;23.02;11.80;;;6.80;63.90;;;;;;4978435;28;20081;-68
2024/01/17 06:13:11;;;;;;;26.02;11.25;;;6.80;64.00;;;;;;4978750;28;20053;-68
2024/01/17 06:15:37;;;;;;;22.63;11.23;;;6.80;63.60;;;;;;4978017;28;20407;-68
2024/01/17 06:18:03;;;;;;;21.27;11.48;;;6.80;63.30;;;;;;4978145;28;20027;-68
2024/01/17 06:20:30;;;;;;;19.38;10.75;;;6.80;63.70;;;;;;4978082;28;20031;-68
2024/01/17 06:22:56;;;;;;;22.65;10.88;;;6.80;63.90;;;;;;4977040;28;20088;-68
2024/01/17 06:25:22;;;;;;;25.35;12.48;;;6.80;64.00;;;;;;4978181;28;20019;-68
2024/01/17 06:27:48;;;;;;;24.45;12.20;;;6.80;64.00;;;;;;4977775;28;20054;-68
2024/01/17 06:30:14;;;;;;;23.85;12.75;;;6.80;64.40;;;;;;4977343;28;20109;-68
2024/01/17 06:32:40;;;;;;;25.60;12.77;;;6.80;64.50;;;;;;4976937;28;20027;-68
2024/01/17 06:35:10;;;;;;;24.58;12.75;;;6.80;64.60;;;;;;4975567;28;20027;-68
2024/01/17 06:37:36;;;;;;;23.92;13.60;;;6.80;64.40;;;;;;5231285;23;20059;-66
2024/01/17 06:40:02;;;;;;;24.40;12.25;;;6.80;64.40;;;;;;4977492;28;20031;-66
2024/01/17 06:42:28;;;;;;;25.40;13.43;;;6.80;64.20;;;;;;4976948;28;20094;-66
2024/01/17 06:44:54;;;;;;;29.70;13.90;;;6.80;64.30;;;;;;4977776;28;20436;-66
2024/01/17 06:47:20;;;;;;;22.73;12.90;;;6.90;64.60;;;;;;4977027;28;20049;-66
2024/01/17 06:49:46;;;;;;;28.83;13.35;;;6.80;64.70;;;;;;4977430;28;20062;-66
2024/01/17 06:52:12;;;;;;;24.23;12.93;;;6.90;64.60;;;;;;4977623;28;20407;-67
2024/01/17 06:54:37;;;;;;;21.77;12.45;;;6.80;64.50;;;;;;4976462;28;20022;-67
2024/01/17 06:57:07;;;;;;;23.63;12.43;;;6.80;64.60;;;;;;4977259;28;20027;-65
2024/01/17 06:59:32;;;;;;;23.23;11.32;;;6.90;64.50;;;;;;4977421;28;20027;-67
2024/01/17 07:01:58;;;;;;;25.55;12.95;;;6.80;64.60;;;;;;4977239;28;20033;-64
2024/01/17 07:04:24;;;;;;;28.90;13.80;;;6.80;64.70;;;;;;4977107;28;20061;-67
2024/01/17 07:06:50;;;;;;;23.90;12.82;;;6.90;64.60;;;;;;4977175;28;20026;-68
2024/01/17 07:09:17;;;;;;;25.88;13.88;;;6.80;65.00;;;;;;4976120;28;20069;-67
2024/01/17 07:11:43;;;;;;;27.45;14.32;;;6.90;65.00;;;;;;4977107;28;20077;-67
2024/01/17 07:14:09;;;;;;;22.27;12.75;;;6.80;65.30;;;;;;4976087;28;20510;-67
2024/01/17 07:16:35;;;;;;;31.88;15.50;;;6.80;65.40;;;;;;4977039;28;20031;-67
2024/01/17 07:19:01;;;;;;;37.05;16.92;;;6.80;65.60;;;;;;4976966;28;20050;-68
2024/01/17 07:21:27;;;;;;;29.75;14.57;;;6.80;65.60;;;;;;4977234;28;20022;-67
2024/01/17 07:23:56;;;;;;;27.45;14.00;;;6.80;65.70;;;;;;4976016;28;20026;-67
2024/01/17 07:26:22;;;;;;;25.95;14.43;;;6.80;65.70;;;;;;4977400;28;20027;-68
2024/01/17 07:28:48;;;;;;;26.67;13.98;;;6.80;65.90;;;;;;4976971;28;20144;-68
2024/01/17 07:31:15;;;;;;;25.50;14.60;;;6.80;65.80;;;;;;4977086;28;20433;-70
2024/01/17 07:33:40;;;;;;;32.78;14.65;;;6.80;66.00;;;;;;4977286;28;20479;-68
2024/01/17 07:36:07;;;;;;;25.40;14.07;;;6.80;65.80;;;;;;4977009;28;20030;-67
2024/01/17 07:38:33;;;;;;;32.80;16.52;;;6.80;65.80;;;;;;4976361;28;20122;-68
2024/01/17 07:43:34;;;;;;;31.08;17.30;;;6.80;65.70;;;;;;5154111;23;20054;-70
2024/01/17 07:46:00;;;;;;;28.55;15.50;;;6.80;65.60;;;;;;4976560;28;20018;-70
2024/01/17 07:48:27;;;;;;;27.23;15.52;;;6.80;65.80;;;;;;4984002;28;20026;-70
2024/01/17 07:50:53;;;;;;;28.05;15.25;;;6.80;65.80;;;;;;4976060;28;20321;-69
2024/01/17 07:56:01;;;;;;;36.10;18.02;;;6.80;65.80;;;;;;5161288;23;20090;-69
2024/01/17 07:58:27;;;;;;;29.90;16.42;;;6.80;66.20;;;;;;4989588;28;20112;-68
2024/01/17 08:00:54;;;;;;;36.10;19.98;;;6.80;66.10;;;;;;4995726;28;20046;-67
2024/01/17 08:03:20;;;;;;;29.83;16.67;;;6.80;66.20;;;;;;4976628;28;20027;-70
2024/01/17 08:05:45;;;;;;;28.92;15.48;;;6.80;66.50;;;;;;4978240;28;20086;-69
2024/01/17 08:08:11;;;;;;;30.92;16.98;;;6.80;66.60;;;;;;4975839;28;20114;-70
2024/01/17 08:10:37;;;;;;;32.58;17.80;;;6.80;66.60;;;;;;4975222;28;20031;-73
2024/01/17 08:13:07;;;;;;;28.70;15.57;;;6.80;66.60;;;;;;4974769;28;20360;-73
2024/01/17 08:15:33;;;;;;;27.30;15.50;;;6.80;66.50;;;;;;4975970;28;20082;-73
2024/01/17 08:17:59;;;;;;;26.52;14.30;;;6.80;66.60;;;;;;4975463;28;20318;-73
2024/01/17 08:20:25;;;;;;;24.10;12.85;;;6.70;66.60;;;;;;4976117;28;20444;-73
2024/01/17 08:22:51;;;;;;;27.73;12.90;;;6.80;66.80;;;;;;4958953;28;20030;-73
2024/01/17 08:25:18;;;;;;;22.75;13.52;;;6.80;67.00;;;;;;4975318;28;20023;-71
2024/01/17 08:27:44;;;;;;;26.27;13.57;;;6.70;67.00;;;;;;4975876;28;20078;-73
2024/01/17 08:32:45;;;;;;;24.45;13.48;;;6.80;67.10;;;;;;5086183;23;20055;-73
2024/01/17 08:35:12;;;;;;;23.50;13.30;;;6.80;67.60;;;;;;4975386;28;20073;-74
2024/01/17 08:37:39;;;;;;;25.80;14.63;;;6.80;67.20;;;;;;4976171;28;20030;-72
2024/01/17 08:40:07;;;;;;;26.88;15.52;;;6.80;67.50;;;;;;5250520;23;20005;-69
2024/01/17 08:42:32;;;;;;;29.50;16.08;;;6.80;67.50;;;;;;4956342;29;20024;-69
2024/01/17 08:44:59;;;;;;;30.77;16.88;;;6.80;67.80;;;;;;4957063;28;20032;-67
2024/01/17 08:47:25;;;;;;;28.30;16.35;;;6.80;67.80;;;;;;4956847;28;20357;-70
2024/01/17 08:49:51;;;;;;;30.17;18.05;;;6.80;67.80;;;;;;4956667;28;20464;-69
2024/01/17 08:52:16;;;;;;;33.53;18.77;;;6.80;67.90;;;;;;4956769;28;20019;-69
2024/01/17 08:54:42;;;;;;;28.33;15.77;;;6.80;68.10;;;;;;4957031;28;20019;-68
2024/01/17 08:57:08;;;;;;;29.95;15.90;;;6.80;68.00;;;;;;4956624;28;20330;-70
2024/01/17 08:59:37;;;;;;;27.40;14.48;;;6.80;68.10;;;;;;4956871;28;20118;-69
2024/01/17 09:02:04;;;;;;;23.73;13.35;;;6.80;68.00;;;;;;4957177;28;20027;-69
2024/01/17 09:04:30;;;;;;;22.20;12.35;;;6.80;68.00;;;;;;4960415;28;20049;-69
2024/01/17 09:06:56;;;;;;;24.33;13.65;;;6.90;67.80;;;;;;4959773;28;20031;-69
2024/01/17 09:09:23;;;;;;;23.55;12.75;;;6.90;67.80;;;;;;4959762;28;20353;-69
2024/01/17 09:11:49;;;;;;;20.27;11.60;;;6.90;67.30;;;;;;4959576;28;20364;-69
2024/01/17 09:14:19;;;;;;;19.55;11.38;;;6.90;66.50;;;;;;4960228;28;20031;-69
2024/01/17 09:16:46;;;;;;;23.63;12.27;;;6.90;66.80;;;;;;4959482;28;20055;-69
2024/01/17 09:19:12;;;;;;;24.27;12.95;;;7.00;66.70;;;;;;4959647;28;20517;-69
2024/01/17 09:21:39;;;;;;;24.00;12.32;;;7.10;66.60;;;;;;4959481;28;20035;-69
2024/01/17 09:24:05;;;;;;;22.17;12.43;;;7.10;66.70;;;;;;4959521;28;20027;-69
2024/01/17 09:26:32;;;;;;;18.98;10.98;;;7.10;67.10;;;;;;4959908;28;20412;-69
2024/01/17 09:28:58;;;;;;;20.35;11.60;;;7.20;66.90;;;;;;5230134;23;20365;-70
2024/01/17 09:31:24;;;;;;;21.35;12.13;;;7.20;66.70;;;;;;4974278;28;20026;-70
2024/01/17 09:33:49;;;;;;;21.00;11.70;;;7.20;66.60;;;;;;4976059;28;20085;-75
2024/01/17 09:36:15;;;;;;;22.00;12.48;;;7.20;66.60;;;;;;5234450;23;20817;-69
2024/01/17 09:38:41;;;;;;;21.80;12.40;;;7.20;66.30;;;;;;4997775;28;20110;-69
2024/01/17 09:41:08;;;;;;;20.65;11.55;;;7.20;66.80;;;;;;4998528;28;20036;-69
2024/01/17 09:43:33;;;;;;;22.08;12.23;;;7.20;67.00;;;;;;4997949;28;20030;-69
2024/01/17 09:46:00;;;;;;;22.80;12.52;;;7.20;66.80;;;;;;4998469;28;20026;-69
2024/01/17 09:48:26;;;;;;;20.90;11.05;;;7.30;67.10;;;;;;4998096;28;20034;-69
2024/01/17 09:50:53;;;;;;;26.67;13.18;;;7.30;66.90;;;;;;4997784;28;20069;-69
2024/01/17 09:53:27;;;;;;;25.48;13.10;;;7.20;67.10;;;;;;4997768;28;20025;-69
2024/01/17 09:55:59;;;;;;;22.38;12.43;;;7.20;67.20;;;;;;4998066;28;20030;-69
2024/01/17 09:58:30;;;;;;;21.63;11.85;;;7.20;67.80;;;;;;4997673;28;20077;-69
2024/01/17 10:00:59;;;;;;;27.00;14.70;;;7.20;68.10;;;;;;4997617;28;20084;-69
2024/01/17 10:03:28;;;;;;;29.23;14.20;;;7.20;68.20;;;;;;4997882;28;20030;-69
2024/01/17 10:05:56;;;;;;;23.60;13.05;;;7.20;68.40;;;;;;4997872;28;20375;-70
2024/01/17 10:08:22;;;;;;;24.52;13.73;;;7.20;68.70;;;;;;4997740;28;20026;-70
2024/01/17 10:10:48;;;;;;;26.42;13.65;;;7.20;68.90;;;;;;4997418;28;20045;-70
2024/01/17 10:13:14;;;;;;;22.55;12.63;;;7.20;69.00;;;;;;4997139;28;20499;-70
2024/01/17 10:15:45;;;;;;;21.75;12.82;;;7.10;69.10;;;;;;4997384;28;20054;-70
2024/01/17 10:18:12;;;;;;;21.98;12.20;;;7.20;68.90;;;;;;4997307;28;20322;-70
2024/01/17 10:20:38;;;;;;;24.60;13.23;;;7.10;69.30;;;;;;4997810;28;20030;-69
2024/01/17 10:23:07;;;;;;;24.63;13.25;;;7.20;69.40;;;;;;4996423;28;20030;-69
2024/01/17 10:28:10;;;;;;;24.95;14.63;;;7.10;69.40;;;;;;5277608;23;20070;-70
2024/01/17 10:30:41;;;;;;;28.05;14.93;;;7.10;69.90;;;;;;4977549;28;20041;-70
2024/01/17 10:33:09;;;;;;;28.92;16.30;;;7.10;70.20;;;;;;4977605;28;20102;-70
2024/01/17 10:35:35;;;;;;;29.90;16.52;;;7.10;70.10;;;;;;4977856;28;20128;-70
2024/01/17 10:38:03;;;;;;;30.88;17.00;;;7.10;70.30;;;;;;4977744;28;20034;-70
2024/01/17 10:40:29;;;;;;;27.08;16.05;;;7.00;70.50;;;;;;4977967;28;20041;-70
2024/01/17 10:43:16;;;;;;;24.95;13.80;;;7.10;70.60;;;;;;4979206;28;20035;-70
2024/01/17 10:45:43;;;;;;;27.48;14.18;;;7.00;70.30;;;;;;4977324;28;20126;-70
2024/01/17 10:48:10;;;;;;;26.88;14.23;;;7.00;70.60;;;;;;4977257;28;20553;-69
2024/01/17 10:50:36;;;;;;;28.65;14.68;;;7.10;70.70;;;;;;4977733;28;20042;-69
2024/01/17 10:53:08;;;;;;;26.02;14.73;;;7.10;70.60;;;;;;4977509;28;20037;-69
2024/01/17 10:55:36;;;;;;;28.67;15.55;;;7.10;70.60;;;;;;4977147;28;20437;-70
2024/01/17 10:58:11;;;;;;;24.23;14.60;;;7.20;70.60;;;;;;4976087;28;20031;-69
2024/01/17 11:00:49;;;;;;;24.50;14.98;;;7.10;70.40;;;;;;4976165;28;20435;-69
2024/01/17 11:03:19;;;;;;;32.58;18.25;;;7.10;70.40;;;;;;4977341;28;20058;-69
2024/01/17 11:05:52;;;;;;;32.60;19.27;;;7.20;70.70;;;;;;4977010;28;20031;-69
2024/01/17 11:08:18;;;;;;;30.58;17.13;;;7.10;70.50;;;;;;4976862;28;20035;-69
2024/01/17 11:10:45;;;;;;;28.45;15.35;;;7.10;70.90;;;;;;4976877;28;20027;-69
2024/01/17 11:13:14;;;;;;;24.00;13.35;;;7.10;70.60;;;;;;4976852;28;20038;-69
2024/01/17 11:15:43;;;;;;;29.10;15.65;;;7.10;70.60;;;;;;4976884;28;20019;-69
2024/01/17 11:18:10;;;;;;;29.70;16.67;;;7.10;70.60;;;;;;4976704;28;20406;-69
2024/01/17 11:20:39;;;;;;;27.15;15.68;;;7.10;70.90;;;;;;4976770;28;20019;-69
2024/01/17 11:23:12;;;;;;;32.35;19.27;;;7.00;71.10;;;;;;4976711;28;20039;-69
2024/01/17 11:25:53;;;;;;;30.35;17.00;;;7.00;71.00;;;;;;4975663;28;20031;-69
2024/01/17 11:28:26;;;;;;;29.48;16.13;;;7.00;71.10;;;;;;4976501;28;20054;-69
2024/01/17 11:30:58;;;;;;;29.13;15.10;;;7.00;71.10;;;;;;4976887;28;20126;-69
2024/01/17 11:33:30;;;;;;;26.27;14.95;;;7.00;71.10;;;;;;4977076;28;20488;-69
2024/01/17 11:35:56;;;;;;;29.77;16.23;;;7.00;71.30;;;;;;4976546;28;20404;-69
2024/01/17 11:38:25;;;;;;;27.00;15.02;;;6.90;71.40;;;;;;4976446;28;20030;-69
2024/01/17 11:40:53;;;;;;;24.23;14.40;;;6.90;71.40;;;;;;4977045;28;20027;-69
2024/01/17 11:43:19;;;;;;;24.90;13.35;;;6.90;71.30;;;;;;4976687;28;20373;-69
2024/01/17 11:45:50;;;;;;;21.40;11.45;;;6.90;71.20;;;;;;4976476;28;20035;-69
2024/01/17 11:48:31;;;;;;;20.23;10.77;;;6.90;71.50;;;;;;4976675;28;20034;-69
2024/01/17 11:51:05;;;;;;;19.85;11.07;;;6.90;71.20;;;;;;4976528;28;20030;-69
2024/01/17 11:53:35;;;;;;;21.90;12.70;;;6.80;71.30;;;;;;4976892;28;20027;-69
2024/01/17 11:56:04;;;;;;;21.55;12.65;;;6.80;71.60;;;;;;4976337;28;20097;-69
2024/01/17 11:58:57;;;;;;;23.58;13.48;;;6.80;71.80;;;;;;4976238;28;20041;-69
2024/01/17 12:01:38;;;;;;;21.65;11.75;;;6.80;71.50;;;;;;4976551;28;20027;-69
2024/01/17 12:04:16;;;;;;;24.40;12.60;;;6.80;71.80;;;;;;4976726;28;20038;-70
2024/01/17 12:06:50;;;;;;;24.73;13.48;;;6.70;71.80;;;;;;4976099;28;20342;-70
2024/01/17 12:09:19;;;;;;;20.25;10.10;;;6.80;72.00;;;;;;4976674;28;20037;-69
2024/01/17 12:11:46;;;;;;;17.05;9.50;;;6.70;72.50;;;;;;4976044;28;20031;-69
2024/01/17 12:14:15;;;;;;;15.77;8.50;;;6.70;72.80;;;;;;4976631;28;20054;-69
2024/01/17 12:16:42;;;;;;;15.65;7.63;;;6.70;72.90;;;;;;4976305;28;20042;-70
2024/01/17 12:19:12;;;;;;;11.68;7.20;;;6.60;72.90;;;;;;4976303;28;20030;-69
2024/01/17 12:21:38;;;;;;;13.18;6.95;;;6.50;72.80;;;;;;4976392;28;20149;-69
2024/01/17 12:24:11;;;;;;;14.05;7.38;;;6.40;73.10;;;;;;4976064;28;20177;-69
2024/01/17 12:26:37;;;;;;;12.93;7.18;;;6.40;73.00;;;;;;4975960;28;20034;-69
2024/01/17 12:29:07;;;;;;;14.73;7.20;;;6.40;73.10;;;;;;4975788;28;20050;-69
2024/01/17 12:31:33;;;;;;;13.35;7.20;;;6.30;73.10;;;;;;4976565;28;20133;-69
2024/01/17 12:33:59;;;;;;;13.88;7.68;;;6.30;73.40;;;;;;4975915;28;20030;-69
2024/01/17 12:36:25;;;;;;;13.95;7.32;;;6.30;73.40;;;;;;4977125;28;20097;-69
2024/01/17 12:38:51;;;;;;;13.05;6.97;;;6.30;73.10;;;;;;4979690;28;20384;-69
2024/01/17 12:41:17;;;;;;;14.32;7.22;;;6.30;72.90;;;;;;4979738;28;20041;-69
2024/01/17 12:43:45;;;;;;;12.35;6.53;;;6.40;73.10;;;;;;4979650;28;20035;-70
2024/01/17 12:46:12;;;;;;;12.10;6.93;;;6.40;73.20;;;;;;4979610;28;20041;-70
2024/01/17 12:48:38;;;;;;;16.02;7.82;;;6.40;73.40;;;;;;4979519;28;20038;-70